Time;durP1;ratioP1;P1;durP2;ratioP2;P2;SDS_P1;SDS_P2;PMS_P1;PMS_P2;Temp;Humidity;BMP_temperature;BMP_pressure;BME280_temperature;BME280_humidity;BME280_pressure;Samples;Min_cycle;Max_cycle;Signal;HPM_P1;HPM_P2
2023/03/08 00:02:01;;;;;;;14.13;9.90;;;;;;;;;;5016707;28;20490;-62
2023/03/08 00:04:26;;;;;;;15.27;9.57;;;;;;;;;;5016918;28;20045;-62
2023/03/08 00:06:52;;;;;;;13.20;8.68;;;;;;;;;;5016599;28;20076;-62
2023/03/08 00:09:17;;;;;;;15.07;9.38;;;;;;;;;;4999120;28;20121;-63
2023/03/08 00:11:43;;;;;;;8.57;6.28;;;;;;;;;;4982594;28;20074;-62
2023/03/08 00:14:08;;;;;;;12.63;9.50;;;;;;;;;;5016451;28;20053;-62
2023/03/08 00:16:34;;;;;;;6.15;4.30;;;;;;;;;;5016411;28;20042;-62
2023/03/08 00:19:00;;;;;;;13.18;8.68;;;;;;;;;;5016381;28;20046;-62
2023/03/08 00:21:26;;;;;;;14.70;10.73;;;;;;;;;;5016556;28;20355;-62
2023/03/08 00:23:52;;;;;;;8.43;6.22;;;;;;;;;;5016353;28;20022;-62
2023/03/08 00:26:18;;;;;;;14.82;9.65;;;;;;;;;;5016203;28;20501;-62
2023/03/08 00:28:45;;;;;;;12.90;9.57;;;;;;;;;;5016227;28;20034;-62
2023/03/08 00:31:11;;;;;;;13.15;9.43;;;;;;;;;;4998290;28;20041;-62
2023/03/08 00:33:37;;;;;;;12.48;8.35;;;;;;;;;;4981904;28;20409;-62
2023/03/08 00:36:04;;;;;;;13.98;8.20;;;;;;;;;;5015931;28;20042;-62
2023/03/08 00:38:30;;;;;;;15.73;9.32;;;;;;;;;;5016054;28;20025;-62
2023/03/08 00:40:56;;;;;;;7.90;5.68;;;;;;;;;;4998231;28;20026;-62
2023/03/08 00:43:21;;;;;;;13.10;9.18;;;;;;;;;;5015776;28;20160;-62
2023/03/08 00:45:47;;;;;;;13.75;9.73;;;;;;;;;;5031282;28;20049;-62
2023/03/08 00:48:13;;;;;;;10.57;8.13;;;;;;;;;;4998506;28;20552;-63
2023/03/08 00:50:39;;;;;;;8.02;6.05;;;;;;;;;;4998284;28;20070;-62
2023/03/08 00:53:04;;;;;;;12.40;8.70;;;;;;;;;;5015706;28;20038;-63
2023/03/08 00:55:30;;;;;;;12.98;8.15;;;;;;;;;;5015433;28;20395;-62
2023/03/08 00:57:55;;;;;;;13.45;9.18;;;;;;;;;;5015847;28;20076;-62
2023/03/08 01:00:21;;;;;;;10.75;8.07;;;;;;;;;;5015476;28;20116;-62
2023/03/08 01:02:46;;;;;;;13.35;8.38;;;;;;;;;;5015657;28;20069;-62
2023/03/08 01:05:12;;;;;;;11.50;9.15;;;;;;;;;;5015655;28;20053;-62
2023/03/08 01:07:38;;;;;;;10.85;8.10;;;;;;;;;;5015476;28;20038;-62
2023/03/08 01:10:05;;;;;;;9.98;7.57;;;;;;;;;;4997411;28;20502;-62
2023/03/08 01:12:31;;;;;;;10.93;7.45;;;;;;;;;;5015480;28;20044;-63
2023/03/08 01:14:58;;;;;;;11.18;7.88;;;;;;;;;;4997533;28;20021;-63
2023/03/08 01:17:24;;;;;;;13.15;9.30;;;;;;;;;;5014840;28;20482;-63
2023/03/08 01:19:49;;;;;;;13.25;9.07;;;;;;;;;;4997995;28;20034;-61
2023/03/08 01:22:16;;;;;;;11.95;9.32;;;;;;;;;;5015160;28;20072;-61
2023/03/08 01:24:45;;;;;;;14.77;9.50;;;;;;;;;;4997679;28;20061;-61
2023/03/08 01:27:11;;;;;;;9.23;7.55;;;;;;;;;;5015154;28;20038;-61
2023/03/08 01:29:37;;;;;;;9.55;7.20;;;;;;;;;;4997737;28;20061;-61
2023/03/08 01:32:02;;;;;;;11.55;7.10;;;;;;;;;;4997426;28;20433;-62
2023/03/08 01:34:28;;;;;;;11.43;8.98;;;;;;;;;;5015005;28;20029;-62
2023/03/08 01:36:54;;;;;;;11.15;8.27;;;;;;;;;;4997463;28;20034;-62
2023/03/08 01:39:19;;;;;;;13.02;9.02;;;;;;;;;;5015079;28;20041;-62
2023/03/08 01:41:45;;;;;;;12.82;9.55;;;;;;;;;;5015007;28;20500;-57
2023/03/08 01:44:14;;;;;;;11.45;8.65;;;;;;;;;;4997164;28;20046;-57
2023/03/08 01:46:39;;;;;;;13.52;9.20;;;;;;;;;;4996295;28;20448;-57
2023/03/08 01:49:19;;;;;;;12.23;9.13;;;;;;;;;;4996901;28;20073;-57
2023/03/08 01:52:01;;;;;;;11.80;7.53;;;;;;;;;;4996867;28;20040;-57
2023/03/08 01:54:35;;;;;;;10.60;8.07;;;;;;;;;;5014783;28;20026;-57
2023/03/08 01:57:04;;;;;;;13.85;9.43;;;;;;;;;;4996956;28;20030;-57
2023/03/08 01:59:31;;;;;;;13.35;9.65;;;;;;;;;;4997087;28;20057;-57
2023/03/08 02:01:58;;;;;;;10.45;8.18;;;;;;;;;;4997088;28;20096;-57
2023/03/08 02:04:24;;;;;;;12.32;9.60;;;;;;;;;;4996881;28;20072;-57
2023/03/08 02:06:50;;;;;;;15.35;10.73;;;;;;;;;;4996788;28;20034;-57
2023/03/08 02:09:20;;;;;;;11.00;7.60;;;;;;;;;;4996959;28;20459;-57
2023/03/08 02:11:46;;;;;;;10.88;7.65;;;;;;;;;;5014267;28;20073;-57
2023/03/08 02:14:12;;;;;;;12.60;9.23;;;;;;;;;;4996910;28;20058;-57
2023/03/08 02:16:51;;;;;;;12.35;9.25;;;;;;;;;;5051601;23;20054;31
2023/03/08 02:19:23;;;;;;;13.77;8.85;;;;;;;;;;4966668;23;20058;-62
2023/03/08 02:21:49;;;;;;;11.10;8.45;;;;;;;;;;5019523;23;20157;-58
2023/03/08 02:24:16;;;;;;;10.48;8.10;;;;;;;;;;5009476;28;20529;-58
2023/03/08 02:26:50;;;;;;;11.23;8.52;;;;;;;;;;5009645;28;20046;-57
2023/03/08 02:29:15;;;;;;;10.50;8.60;;;;;;;;;;4994208;28;20034;-57
2023/03/08 02:31:40;;;;;;;8.77;7.50;;;;;;;;;;5009898;28;20082;-58
2023/03/08 02:34:07;;;;;;;9.20;7.05;;;;;;;;;;5009519;28;20042;-58
2023/03/08 02:36:32;;;;;;;10.57;8.20;;;;;;;;;;4994766;28;20030;-58
2023/03/08 02:38:57;;;;;;;8.88;7.30;;;;;;;;;;5009663;28;20025;-58
2023/03/08 02:41:26;;;;;;;13.18;8.80;;;;;;;;;;5009493;28;20031;-63
2023/03/08 02:43:51;;;;;;;9.32;6.75;;;;;;;;;;4994318;28;20351;-63
2023/03/08 02:46:16;;;;;;;11.65;7.95;;;;;;;;;;4994881;28;20062;-63
2023/03/08 02:48:44;;;;;;;11.63;8.60;;;;;;;;;;4994797;28;20030;-58
2023/03/08 02:51:10;;;;;;;9.70;7.63;;;;;;;;;;5009799;28;20019;-59
2023/03/08 02:53:35;;;;;;;10.15;7.82;;;;;;;;;;4992811;28;20034;-60
2023/03/08 02:56:02;;;;;;;8.75;7.07;;;;;;;;;;4994454;28;20108;-59
2023/03/08 02:58:28;;;;;;;11.05;7.00;;;;;;;;;;4994372;28;20455;-60
2023/03/08 03:00:55;;;;;;;11.93;8.20;;;;;;;;;;5013498;28;20093;-59
2023/03/08 03:03:20;;;;;;;8.00;6.75;;;;;;;;;;5013317;28;20038;-58
2023/03/08 03:05:49;;;;;;;10.73;7.88;;;;;;;;;;5013271;28;20407;-58
2023/03/08 03:08:18;;;;;;;8.13;6.27;;;;;;;;;;5013636;28;20038;-58
2023/03/08 03:10:44;;;;;;;8.23;6.82;;;;;;;;;;4996595;28;20034;-58
2023/03/08 03:13:11;;;;;;;10.65;6.93;;;;;;;;;;5013159;28;20027;-58
2023/03/08 03:15:38;;;;;;;10.93;7.90;;;;;;;;;;5013174;28;20038;-58
2023/03/08 03:18:04;;;;;;;9.93;7.53;;;;;;;;;;5013344;28;20027;-58
2023/03/08 03:20:31;;;;;;;8.52;7.60;;;;;;;;;;5012948;28;20034;-58
2023/03/08 03:22:57;;;;;;;9.13;7.07;;;;;;;;;;4997724;28;20054;-63
2023/03/08 03:25:28;;;;;;;10.35;7.63;;;;;;;;;;5012768;28;20504;-63
2023/03/08 03:27:55;;;;;;;10.95;7.70;;;;;;;;;;5012802;28;20035;-63
2023/03/08 03:30:21;;;;;;;8.15;6.30;;;;;;;;;;5012582;28;20038;-63
2023/03/08 03:32:47;;;;;;;9.07;7.68;;;;;;;;;;4996123;28;20359;-62
2023/03/08 03:35:16;;;;;;;10.85;7.63;;;;;;;;;;4996748;28;20029;-62
2023/03/08 03:37:42;;;;;;;9.75;7.30;;;;;;;;;;5012676;28;20042;-63
2023/03/08 03:40:10;;;;;;;7.25;6.50;;;;;;;;;;5012194;28;20031;-63
2023/03/08 03:42:36;;;;;;;9.52;7.55;;;;;;;;;;5012125;28;20150;-63
2023/03/08 03:45:07;;;;;;;10.38;6.88;;;;;;;;;;5012635;28;20037;-62
2023/03/08 03:47:33;;;;;;;11.13;8.48;;;;;;;;;;4996108;28;20034;-62
2023/03/08 03:50:02;;;;;;;9.27;6.25;;;;;;;;;;4995761;28;20093;-63
2023/03/08 03:52:34;;;;;;;13.70;9.52;;;;;;;;;;5012181;28;20045;-63
2023/03/08 03:55:02;;;;;;;10.90;7.68;;;;;;;;;;5012838;28;20039;-62
2023/03/08 03:57:29;;;;;;;16.05;9.60;;;;;;;;;;5012406;28;20079;-63
2023/03/08 03:59:55;;;;;;;8.48;5.05;;;;;;;;;;5012242;28;20096;-62
2023/03/08 04:02:23;;;;;;;13.18;8.68;;;;;;;;;;5012045;28;20482;-63
2023/03/08 04:04:53;;;;;;;13.57;9.18;;;;;;;;;;5012239;28;20480;-63
2023/03/08 04:07:22;;;;;;;12.55;9.15;;;;;;;;;;5012183;28;20460;-62
2023/03/08 04:09:54;;;;;;;12.98;8.43;;;;;;;;;;4996627;28;20046;-63
2023/03/08 04:12:26;;;;;;;15.30;9.57;;;;;;;;;;4997037;28;20046;-63
2023/03/08 04:14:52;;;;;;;14.48;9.43;;;;;;;;;;5011916;28;20481;-62
2023/03/08 04:17:19;;;;;;;14.88;9.25;;;;;;;;;;5011901;28;20073;-62
2023/03/08 04:19:49;;;;;;;12.48;8.88;;;;;;;;;;5011938;28;20045;-62
2023/03/08 04:22:15;;;;;;;10.88;8.38;;;;;;;;;;5011528;28;20046;-63
2023/03/08 04:24:46;;;;;;;11.18;7.18;;;;;;;;;;5011941;28;20034;-63
2023/03/08 04:27:16;;;;;;;9.98;7.55;;;;;;;;;;4995539;28;20042;-63
2023/03/08 04:29:43;;;;;;;11.50;7.85;;;;;;;;;;5012064;28;20042;-57
2023/03/08 04:32:08;;;;;;;11.48;8.20;;;;;;;;;;5011126;28;20042;-57
2023/03/08 04:34:43;;;;;;;10.73;8.30;;;;;;;;;;4996631;28;20450;-57
2023/03/08 04:37:11;;;;;;;13.05;9.13;;;;;;;;;;5011394;28;20096;-57
2023/03/08 04:39:37;;;;;;;11.60;8.13;;;;;;;;;;5011346;28;20442;-57
2023/03/08 04:42:03;;;;;;;9.80;7.00;;;;;;;;;;5011233;28;20073;-58
2023/03/08 04:44:30;;;;;;;11.02;8.82;;;;;;;;;;5011666;28;20039;-57
2023/03/08 04:46:57;;;;;;;9.15;7.78;;;;;;;;;;5011075;28;20057;-57
2023/03/08 04:49:41;;;;;;;9.82;7.25;;;;;;;;;;5011008;28;20039;-58
2023/03/08 04:52:06;;;;;;;10.52;6.80;;;;;;;;;;4996046;28;20504;-57
2023/03/08 04:54:33;;;;;;;9.45;7.32;;;;;;;;;;5011315;28;20031;-58
2023/03/08 04:57:03;;;;;;;8.75;6.15;;;;;;;;;;5011401;28;20070;-59
2023/03/08 04:59:30;;;;;;;9.60;7.05;;;;;;;;;;5011082;28;20031;-58
2023/03/08 05:02:00;;;;;;;7.80;7.00;;;;;;;;;;5010749;28;20046;-63
2023/03/08 05:04:27;;;;;;;10.57;7.72;;;;;;;;;;5010658;28;20034;-63
2023/03/08 05:06:53;;;;;;;9.65;7.38;;;;;;;;;;4995717;28;20042;-63
2023/03/08 05:09:22;;;;;;;8.98;7.05;;;;;;;;;;5010683;28;20042;-63
2023/03/08 05:11:50;;;;;;;11.20;6.88;;;;;;;;;;5009239;28;20041;-64
2023/03/08 05:14:15;;;;;;;9.60;5.53;;;;;;;;;;4994569;28;20022;-64
2023/03/08 05:16:42;;;;;;;8.73;6.95;;;;;;;;;;4995451;28;20038;-64
2023/03/08 05:19:08;;;;;;;8.32;6.57;;;;;;;;;;4994417;28;20125;-64
2023/03/08 05:21:40;;;;;;;7.97;7.07;;;;;;;;;;4992546;28;20034;-64
2023/03/08 05:24:06;;;;;;;8.45;7.00;;;;;;;;;;4995555;28;20378;-64
2023/03/08 05:26:34;;;;;;;10.85;7.90;;;;;;;;;;4994152;28;20065;-63
2023/03/08 05:29:02;;;;;;;9.30;6.88;;;;;;;;;;4992431;28;20066;-64
2023/03/08 05:31:27;;;;;;;8.07;7.20;;;;;;;;;;4993623;28;20027;-64
2023/03/08 05:33:55;;;;;;;8.30;6.88;;;;;;;;;;4993481;28;20069;-64
2023/03/08 05:36:28;;;;;;;9.57;7.68;;;;;;;;;;4993414;28;20030;-58
2023/03/08 05:38:57;;;;;;;11.00;7.05;;;;;;;;;;4992999;28;20406;-57
2023/03/08 05:41:30;;;;;;;8.30;7.20;;;;;;;;;;4992854;28;20467;-57
2023/03/08 05:43:58;;;;;;;9.82;6.88;;;;;;;;;;4993128;28;20034;-57
2023/03/08 05:46:25;;;;;;;8.32;7.03;;;;;;;;;;4993099;28;20504;-63
2023/03/08 05:48:51;;;;;;;8.45;7.20;;;;;;;;;;4993338;28;20044;-63
2023/03/08 05:51:18;;;;;;;7.30;6.22;;;;;;;;;;4994251;28;20113;-64
2023/03/08 05:53:44;;;;;;;8.65;6.70;;;;;;;;;;4993104;28;20081;-63
2023/03/08 05:56:15;;;;;;;8.48;6.35;;;;;;;;;;4993308;28;20026;-63
2023/03/08 05:58:46;;;;;;;11.20;7.65;;;;;;;;;;4991345;28;20073;-63
2023/03/08 06:01:12;;;;;;;9.57;7.32;;;;;;;;;;4991542;28;20129;-63
2023/03/08 06:03:38;;;;;;;8.65;6.65;;;;;;;;;;4992611;28;20693;-63
2023/03/08 06:06:04;;;;;;;9.20;6.90;;;;;;;;;;4976215;28;20038;-63
2023/03/08 06:08:30;;;;;;;8.23;6.72;;;;;;;;;;4990935;28;20044;-63
2023/03/08 06:10:55;;;;;;;9.95;6.85;;;;;;;;;;4991333;28;20042;-57
2023/03/08 06:13:21;;;;;;;7.40;6.63;;;;;;;;;;4993119;28;20084;-57
2023/03/08 06:15:46;;;;;;;9.07;6.53;;;;;;;;;;4991030;28;20042;-57
2023/03/08 06:18:12;;;;;;;8.85;6.53;;;;;;;;;;4992076;28;20033;-57
2023/03/08 06:20:38;;;;;;;10.27;5.88;;;;;;;;;;4991772;28;20059;-57
2023/03/08 06:23:04;;;;;;;8.43;6.68;;;;;;;;;;4991335;28;20077;-57
2023/03/08 06:25:30;;;;;;;12.73;8.82;;;;;;;;;;4991698;28;20050;-57
2023/03/08 06:27:56;;;;;;;11.02;7.63;;;;;;;;;;4991412;28;20128;-59
2023/03/08 06:30:30;;;;;;;11.20;8.00;;;;;;;;;;4991684;28;20073;-60
2023/03/08 06:32:56;;;;;;;10.02;7.70;;;;;;;;;;4975133;28;20071;-60
2023/03/08 06:35:22;;;;;;;8.77;6.45;;;;;;;;;;4992041;28;20065;-59
2023/03/08 06:37:53;;;;;;;8.45;6.40;;;;;;;;;;4991857;28;20125;-58
2023/03/08 06:40:19;;;;;;;8.77;6.60;;;;;;;;;;4992611;28;20126;-58
2023/03/08 06:42:45;;;;;;;9.02;6.53;;;;;;;;;;4993245;28;20043;-59
2023/03/08 06:45:13;;;;;;;9.68;7.30;;;;;;;;;;4993368;28;20089;-58
2023/03/08 06:47:38;;;;;;;10.60;6.60;;;;;;;;;;4993970;28;20043;-58
2023/03/08 06:50:04;;;;;;;11.25;7.30;;;;;;;;;;4992661;28;20029;-66
2023/03/08 06:52:36;;;;;;;9.25;6.88;;;;;;;;;;4992924;28;20081;-66
2023/03/08 06:55:05;;;;;;;9.57;6.15;;;;;;;;;;4992798;28;20089;-66
2023/03/08 06:57:31;;;;;;;11.15;6.82;;;;;;;;;;4992235;28;20088;-66
2023/03/08 06:59:56;;;;;;;10.05;7.03;;;;;;;;;;4992243;28;20286;-66
2023/03/08 07:02:22;;;;;;;11.15;7.15;;;;;;;;;;4992037;28;20043;-66
2023/03/08 07:04:47;;;;;;;10.75;7.25;;;;;;;;;;4992540;28;20482;-66
2023/03/08 07:07:12;;;;;;;11.32;7.38;;;;;;;;;;4992964;28;20038;-66
2023/03/08 07:09:38;;;;;;;10.32;6.78;;;;;;;;;;4993155;28;20381;-66
2023/03/08 07:12:03;;;;;;;8.85;6.43;;;;;;;;;;4992130;28;20094;-66
2023/03/08 07:14:29;;;;;;;8.77;6.35;;;;;;;;;;4993612;28;20022;-65
2023/03/08 07:16:54;;;;;;;10.60;7.07;;;;;;;;;;5006179;23;20505;-58
2023/03/08 07:19:19;;;;;;;13.68;8.38;;;;;;;;;;4993452;28;20039;-58
2023/03/08 07:21:45;;;;;;;10.77;7.25;;;;;;;;;;4975992;28;20081;-64
2023/03/08 07:24:10;;;;;;;7.90;5.72;;;;;;;;;;4993450;28;20038;-58
2023/03/08 07:26:36;;;;;;;12.50;7.57;;;;;;;;;;4975865;28;20039;-58
2023/03/08 07:29:02;;;;;;;9.63;7.20;;;;;;;;;;4993403;28;20498;-58
2023/03/08 07:31:28;;;;;;;11.95;7.05;;;;;;;;;;4993439;28;20065;-58
2023/03/08 07:33:54;;;;;;;11.85;6.93;;;;;;;;;;4975893;28;20089;-58
2023/03/08 07:36:19;;;;;;;13.60;8.75;;;;;;;;;;4993324;28;20030;-58
2023/03/08 07:38:45;;;;;;;12.32;7.25;;;;;;;;;;4993596;28;20441;-58
2023/03/08 07:41:11;;;;;;;14.38;8.25;;;;;;;;;;4975825;28;20478;-58
2023/03/08 07:43:36;;;;;;;15.43;8.60;;;;;;;;;;4993282;28;20078;-58
2023/03/08 07:46:12;;;;;;;16.98;8.80;;;;;;;;;;4996790;28;20093;-58
2023/03/08 07:48:37;;;;;;;12.25;8.38;;;;;;;;;;4996737;28;20042;-58
2023/03/08 07:51:05;;;;;;;11.88;8.25;;;;;;;;;;4979153;28;20042;-58
2023/03/08 07:53:30;;;;;;;17.58;10.80;;;;;;;;;;4996634;28;20514;-58
2023/03/08 07:55:56;;;;;;;12.77;9.32;;;;;;;;;;4995742;28;20081;-58
2023/03/08 07:58:22;;;;;;;11.30;8.82;;;;;;;;;;4979348;28;20045;-58
2023/03/08 08:00:47;;;;;;;10.80;9.15;;;;;;;;;;4996526;28;20069;-58
2023/03/08 08:03:13;;;;;;;11.73;8.98;;;;;;;;;;4979068;28;20142;-58
2023/03/08 08:05:38;;;;;;;10.98;8.52;;;;;;;;;;4996384;28;20077;-58
2023/03/08 08:08:03;;;;;;;11.52;8.85;;;;;;;;;;4996245;28;20511;-57
2023/03/08 08:10:29;;;;;;;11.43;9.00;;;;;;;;;;4962779;28;20486;-58
2023/03/08 08:12:54;;;;;;;11.50;9.20;;;;;;;;;;4996233;28;20038;-58
2023/03/08 08:15:19;;;;;;;10.40;8.45;;;;;;;;;;4996210;28;20117;-58
2023/03/08 08:17:45;;;;;;;10.63;8.27;;;;;;;;;;4996062;28;20066;-58
2023/03/08 08:20:10;;;;;;;8.93;7.90;;;;;;;;;;4996303;28;20065;-58
2023/03/08 08:22:36;;;;;;;12.65;8.45;;;;;;;;;;4996155;28;20504;-58
2023/03/08 08:25:03;;;;;;;9.50;8.23;;;;;;;;;;4996051;28;20462;-58
2023/03/08 08:27:28;;;;;;;10.40;8.40;;;;;;;;;;4996113;28;20041;-58
2023/03/08 08:29:53;;;;;;;10.15;8.48;;;;;;;;;;4996051;28;20027;-58
2023/03/08 08:32:19;;;;;;;9.48;7.82;;;;;;;;;;4995837;28;20039;-58
2023/03/08 08:34:44;;;;;;;9.90;8.18;;;;;;;;;;4978406;28;20490;-58
2023/03/08 08:37:10;;;;;;;9.60;8.52;;;;;;;;;;4995905;28;20102;-58
2023/03/08 08:39:35;;;;;;;8.32;7.10;;;;;;;;;;4995862;28;20030;-59
2023/03/08 08:42:00;;;;;;;10.63;9.32;;;;;;;;;;4978215;28;20054;-57
2023/03/08 08:44:27;;;;;;;10.88;8.65;;;;;;;;;;4978327;28;20126;-57
2023/03/08 08:46:52;;;;;;;11.38;8.25;;;;;;;;;;4995706;28;20042;-58
2023/03/08 08:49:17;;;;;;;10.77;8.48;;;;;;;;;;4995622;28;20386;-58
2023/03/08 08:51:43;;;;;;;10.52;9.32;;;;;;;;;;4995446;28;20039;-58
2023/03/08 08:54:08;;;;;;;12.70;9.15;;;;;;;;;;4995575;28;20500;-58
2023/03/08 08:56:33;;;;;;;11.65;9.52;;;;;;;;;;4995459;28;20549;-58
2023/03/08 08:59:00;;;;;;;11.15;8.63;;;;;;;;;;4995434;28;20443;-58
2023/03/08 09:01:27;;;;;;;11.63;10.13;;;;;;;;;;4995409;28;20501;-58
2023/03/08 09:03:53;;;;;;;10.90;9.85;;;;;;;;;;4995389;28;20038;-58
2023/03/08 09:06:19;;;;;;;11.63;10.00;;;;;;;;;;4995301;28;20445;-58
2023/03/08 09:08:47;;;;;;;11.25;9.50;;;;;;;;;;4995255;28;20485;-58
2023/03/08 09:11:13;;;;;;;13.55;10.10;;;;;;;;;;4995218;28;20034;-58
2023/03/08 09:13:40;;;;;;;12.10;10.45;;;;;;;;;;4995014;28;20042;-58
2023/03/08 09:16:06;;;;;;;13.43;10.32;;;;;;;;;;4995047;28;20038;-58
2023/03/08 09:18:31;;;;;;;10.27;8.65;;;;;;;;;;4995122;28;20125;-58
2023/03/08 09:20:57;;;;;;;10.25;9.25;;;;;;;;;;4995015;28;20058;-58
2023/03/08 09:23:22;;;;;;;11.82;9.32;;;;;;;;;;4994950;28;20093;-58
2023/03/08 09:25:55;;;;;;;10.20;9.18;;;;;;;;;;4994943;28;20046;-58
2023/03/08 09:28:20;;;;;;;10.43;9.32;;;;;;;;;;4995156;28;20394;-58
2023/03/08 09:30:45;;;;;;;9.10;8.18;;;;;;;;;;4961217;28;20101;-58
2023/03/08 09:33:11;;;;;;;9.13;8.13;;;;;;;;;;4994702;28;20633;-65
2023/03/08 09:35:36;;;;;;;9.55;8.52;;;;;;;;;;4977362;28;20019;-65
2023/03/08 09:38:02;;;;;;;10.13;8.13;;;;;;;;;;4977606;28;20038;-65
2023/03/08 09:40:28;;;;;;;11.00;9.10;;;;;;;;;;4961198;28;20035;-65
2023/03/08 09:42:58;;;;;;;10.18;8.95;;;;;;;;;;4994602;28;20042;-65
2023/03/08 09:45:26;;;;;;;17.90;11.17;;;;;;;;;;4994707;28;20392;-65
2023/03/08 09:47:51;;;;;;;10.60;9.25;;;;;;;;;;4994617;28;20044;-66
2023/03/08 09:50:24;;;;;;;10.45;8.40;;;;;;;;;;4994398;28;20042;-65
2023/03/08 09:53:23;;;;;;;12.65;9.77;;;;;;;;;;4994459;28;20046;-67
2023/03/08 09:55:51;;;;;;;10.43;8.57;;;;;;;;;;4952029;28;20044;-65
2023/03/08 09:58:20;;;;;;;9.80;8.80;;;;;;;;;;4994369;28;20050;-65
2023/03/08 10:00:46;;;;;;;9.02;8.13;;;;;;;;;;4994334;28;20045;-66
2023/03/08 10:03:17;;;;;;;8.65;7.72;;;;;;;;;;4994297;28;20042;-66
2023/03/08 10:05:56;;;;;;;12.70;9.85;;;;;;;;;;4976836;28;20038;-58
2023/03/08 10:08:22;;;;;;;14.10;10.23;;;;;;;;;;4993750;28;20053;-58
2023/03/08 10:10:51;;;;;;;12.57;9.55;;;;;;;;;;4994206;28;20054;-58
2023/03/08 10:13:26;;;;;;;12.68;9.27;;;;;;;;;;4994100;28;20606;-58
2023/03/08 10:15:56;;;;;;;11.55;8.55;;;;;;;;;;4993870;28;20089;-58
2023/03/08 10:18:30;;;;;;;11.05;8.70;;;;;;;;;;4994051;28;20117;-58
2023/03/08 10:20:57;;;;;;;10.38;8.60;;;;;;;;;;4994098;28;20154;-58
2023/03/08 10:23:23;;;;;;;19.75;11.73;;;;;;;;;;4960466;28;20098;-58
2023/03/08 10:25:49;;;;;;;12.60;10.18;;;;;;;;;;4994015;28;20434;-65
2023/03/08 10:28:14;;;;;;;9.88;7.80;;;;;;;;;;4976648;28;20046;-66
2023/03/08 10:30:41;;;;;;;12.02;8.93;;;;;;;;;;4993934;28;20367;-65
2023/03/08 10:33:09;;;;;;;13.07;9.60;;;;;;;;;;4993889;28;20482;-65
2023/03/08 10:35:36;;;;;;;14.43;10.80;;;;;;;;;;4976670;28;20057;-65
2023/03/08 10:38:03;;;;;;;11.85;9.52;;;;;;;;;;4976518;28;20023;-66
2023/03/08 10:40:28;;;;;;;11.23;9.52;;;;;;;;;;4993866;28;20121;-65
2023/03/08 10:43:00;;;;;;;13.90;11.05;;;;;;;;;;4993815;28;20157;-65
2023/03/08 10:45:27;;;;;;;20.08;14.10;;;;;;;;;;4993803;28;20039;-65
2023/03/08 10:47:57;;;;;;;15.95;11.68;;;;;;;;;;4993819;28;20061;-66
2023/03/08 10:50:26;;;;;;;14.75;10.85;;;;;;;;;;4976429;28;20054;-65
2023/03/08 10:52:52;;;;;;;12.20;10.07;;;;;;;;;;4993670;28;20052;-65
2023/03/08 10:55:27;;;;;;;17.33;11.40;;;;;;;;;;4993673;28;20034;-65
2023/03/08 10:57:52;;;;;;;9.90;8.90;;;;;;;;;;4960259;28;20061;-65
2023/03/08 11:00:18;;;;;;;9.52;8.35;;;;;;;;;;4993672;28;20398;-65
2023/03/08 11:02:43;;;;;;;223.95;23.70;;;;;;;;;;4993644;28;20042;-65
2023/03/08 11:05:17;;;;;;;72.88;10.68;;;;;;;;;;4993599;28;20482;-65
2023/03/08 11:07:49;;;;;;;14.20;9.93;;;;;;;;;;4993654;28;20402;-65
2023/03/08 11:10:16;;;;;;;14.90;10.63;;;;;;;;;;4993639;28;20141;-65
2023/03/08 11:12:42;;;;;;;12.68;9.43;;;;;;;;;;4976105;28;20383;-58
2023/03/08 11:15:14;;;;;;;11.00;8.65;;;;;;;;;;4993548;28;20084;-58
2023/03/08 11:17:44;;;;;;;13.75;8.90;;;;;;;;;;4993259;28;20054;-58
2023/03/08 11:20:09;;;;;;;12.23;9.23;;;;;;;;;;4995641;28;20405;-58
2023/03/08 11:22:53;;;;;;;9.38;7.93;;;;;;;;;;4997280;28;20096;-58
2023/03/08 11:25:31;;;;;;;10.52;8.55;;;;;;;;;;4997163;28;20046;-58
2023/03/08 11:28:15;;;;;;;14.20;9.82;;;;;;;;;;4979619;28;20494;-65
2023/03/08 11:30:50;;;;;;;10.38;8.48;;;;;;;;;;4979704;28;20030;-65
2023/03/08 11:33:15;;;;;;;10.70;7.82;;;;;;;;;;4996956;28;20046;-65
2023/03/08 11:36:13;;;;;;;7.15;5.80;;;;;;;;;;4997279;28;20033;-65
2023/03/08 11:38:39;;;;;;;9.18;7.95;;;;;;;;;;4951631;28;20497;-65
2023/03/08 11:41:19;;;;;;;13.93;8.40;;;;;;;;;;4996955;28;20045;-65
2023/03/08 11:43:45;;;;;;;11.45;8.77;;;;;;;;;;4963291;28;20092;-66
2023/03/08 11:46:22;;;;;;;11.68;8.25;;;;;;;;;;4979548;28;20054;-57
2023/03/08 11:48:48;;;;;;;10.90;8.63;;;;;;;;;;4996825;28;20048;-58
2023/03/08 11:51:20;;;;;;;10.30;9.07;;;;;;;;;;4996775;28;20101;-58
2023/03/08 11:54:04;;;;;;;9.68;7.38;;;;;;;;;;4979068;28;20051;-58
2023/03/08 11:56:44;;;;;;;12.55;8.85;;;;;;;;;;4996728;28;20054;-58
2023/03/08 11:59:16;;;;;;;13.10;9.35;;;;;;;;;;4996938;28;20113;-66
2023/03/08 12:01:51;;;;;;;13.10;9.10;;;;;;;;;;4996534;28;20125;-66
2023/03/08 12:04:19;;;;;;;18.88;10.38;;;;;;;;;;4996526;28;20133;-66
2023/03/08 12:06:46;;;;;;;13.85;9.07;;;;;;;;;;4996475;28;20058;-66
2023/03/08 12:09:14;;;;;;;12.70;10.10;;;;;;;;;;4996480;28;20026;-66
2023/03/08 12:11:39;;;;;;;16.35;12.70;;;;;;;;;;4996343;28;20121;-66
2023/03/08 12:14:16;;;;;;;14.82;12.48;;;;;;;;;;4996222;28;20518;-66
2023/03/08 12:16:44;;;;;;;14.60;11.05;;;;;;;;;;4996067;28;20469;-65
2023/03/08 12:19:16;;;;;;;16.33;10.48;;;;;;;;;;4996252;28;20113;-58
2023/03/08 12:21:44;;;;;;;13.27;9.02;;;;;;;;;;4996125;28;20073;-58
2023/03/08 12:24:31;;;;;;;15.15;11.13;;;;;;;;;;5015369;23;20069;31
2023/03/08 12:27:00;;;;;;;16.40;11.60;;;;;;;;;;5019410;23;20088;-58
2023/03/08 12:31:54;;;;;;;27.42;16.75;;;;;;;;;;4974455;28;20047;-65
2023/03/08 12:34:26;;;;;;;27.75;17.13;;;;;;;;;;4976432;28;20042;-65
2023/03/08 12:36:51;;;;;;;19.95;13.38;;;;;;;;;;4976444;28;20054;-65
2023/03/08 12:39:25;;;;;;;19.95;12.48;;;;;;;;;;4976415;28;20039;-65
2023/03/08 12:41:58;;;;;;;26.50;16.52;;;;;;;;;;4976355;28;20035;-65
2023/03/08 12:44:28;;;;;;;19.48;13.23;;;;;;;;;;4976326;28;20031;-65
2023/03/08 12:46:53;;;;;;;19.80;13.90;;;;;;;;;;4972731;28;20417;-65
2023/03/08 12:49:23;;;;;;;25.63;14.38;;;;;;;;;;4976143;28;20121;-66
2023/03/08 12:51:49;;;;;;;;;;;;;;;;;;4976588;28;20042;-65
2023/03/08 12:54:20;;;;;;;19.70;12.13;;;;;;;;;;4976176;28;19917;-65
2023/03/08 12:56:48;;;;;;;16.83;12.10;;;;;;;;;;4971476;28;20731;-65
2023/03/08 12:59:14;;;;;;;11.38;8.27;;;;;;;;;;4976104;28;20042;-65
2023/03/08 13:01:39;;;;;;;18.17;11.68;;;;;;;;;;4975952;28;20047;-65
2023/03/08 13:04:06;;;;;;;21.70;12.35;;;;;;;;;;4975979;28;20105;-65
2023/03/08 13:06:34;;;;;;;14.38;9.20;;;;;;;;;;4975924;28;20517;-65
2023/03/08 13:09:05;;;;;;;13.25;9.80;;;;;;;;;;4975823;28;20106;-65
2023/03/08 13:11:30;;;;;;;;;;;;;;;;;;4976287;28;20114;-65
2023/03/08 13:13:56;;;;;;;10.87;6.93;;;;;;;;;;4972495;28;20399;-65
2023/03/08 13:16:25;;;;;;;9.55;6.82;;;;;;;;;;4975694;28;20278;-65
2023/03/08 13:19:00;;;;;;;9.43;6.72;;;;;;;;;;4975654;28;20038;-65
2023/03/08 13:21:29;;;;;;;7.38;5.70;;;;;;;;;;4975670;28;20395;-65
2023/03/08 13:23:59;;;;;;;10.27;7.10;;;;;;;;;;4975620;28;20031;-65
2023/03/08 13:26:35;;;;;;;13.27;7.30;;;;;;;;;;4975552;28;20043;-65
2023/03/08 13:29:04;;;;;;;10.15;7.32;;;;;;;;;;4975479;28;20046;-65
2023/03/08 13:31:30;;;;;;;9.73;6.95;;;;;;;;;;4975301;28;20082;-65
2023/03/08 13:33:58;;;;;;;10.30;7.00;;;;;;;;;;4958132;28;20402;-65
2023/03/08 13:36:23;;;;;;;10.25;6.55;;;;;;;;;;4975388;28;20526;-65
2023/03/08 13:38:56;;;;;;;8.25;5.88;;;;;;;;;;4975345;28;20063;-65
2023/03/08 13:41:38;;;;;;;5.75;5.15;;;;;;;;;;4974903;28;20034;-66
2023/03/08 13:44:12;;;;;;;5.32;4.38;;;;;;;;;;4975073;28;20046;-66
2023/03/08 13:46:41;;;;;;;6.05;4.65;;;;;;;;;;4975213;28;20395;-65
2023/03/08 13:49:26;;;;;;;8.18;5.32;;;;;;;;;;4958147;28;20065;-66
2023/03/08 13:51:56;;;;;;;5.32;4.40;;;;;;;;;;4975050;28;20118;-66
2023/03/08 13:54:29;;;;;;;5.13;3.72;;;;;;;;;;4975000;28;20100;-66
2023/03/08 13:56:55;;;;;;;5.95;5.32;;;;;;;;;;4975068;28;20039;-65
2023/03/08 13:59:21;;;;;;;7.25;5.53;;;;;;;;;;4975274;28;20042;-65
2023/03/08 14:01:50;;;;;;;14.50;6.72;;;;;;;;;;4975251;28;20398;-65
2023/03/08 14:04:17;;;;;;;5.22;4.38;;;;;;;;;;4975476;28;20039;-65
2023/03/08 14:06:48;;;;;;;5.93;3.92;;;;;;;;;;4975168;28;20035;-65
2023/03/08 14:09:13;;;;;;;4.35;3.95;;;;;;;;;;4958700;28;20035;-65
2023/03/08 14:11:40;;;;;;;5.25;4.32;;;;;;;;;;4975067;28;20505;-65
2023/03/08 14:14:09;;;;;;;6.07;5.03;;;;;;;;;;4975012;28;20042;-65
2023/03/08 14:16:35;;;;;;;4.97;4.35;;;;;;;;;;4958358;28;20097;-65
2023/03/08 14:19:30;;;;;;;6.25;4.80;;;;;;;;;;4958563;28;20033;-65
2023/03/08 14:21:58;;;;;;;5.22;4.43;;;;;;;;;;4945123;28;20542;-65
2023/03/08 14:24:25;;;;;;;4.40;4.00;;;;;;;;;;4974928;28;20027;-65
2023/03/08 14:26:59;;;;;;;4.88;3.95;;;;;;;;;;4974890;28;20118;-65
2023/03/08 14:29:26;;;;;;;5.88;4.50;;;;;;;;;;4975429;28;20061;-65
2023/03/08 14:31:54;;;;;;;4.07;3.55;;;;;;;;;;4974649;28;20050;-65
2023/03/08 14:34:27;;;;;;;4.70;4.22;;;;;;;;;;4975127;28;20039;-65
2023/03/08 14:37:06;;;;;;;3.83;2.83;;;;;;;;;;4974793;28;20043;-67
2023/03/08 14:39:33;;;;;;;8.00;5.80;;;;;;;;;;4974638;28;20082;-67
2023/03/08 14:42:07;;;;;;;7.40;5.28;;;;;;;;;;4974674;28;20031;-66